Latest Coastal Weather Observations for Maroochydore

IDQ60701

Issued at 1:51 pm EST Thursday 2 July 2015 (issued every 10 minutes, with the page automatically refreshed every 10 minutes)

About coastal observations | Map of coastal stations | Coastal observations for QLD | Marine services | Other Formats
Station Details ID: 040861 Name: SUNSHINE COAST AIRPORT Lat: -26.60 Lon: 153.09 Height: 3.3 m
Data from the previous 72 hours. | See also: Recent months at Maroochydore
Date/Time
EST
Temp

°C
Wind Pressure Rain
since 9am
mm
Weather Cloud Vis
km
Sea
Height
m
Swell
Dir
 
Speed
knots
Gust
knots
hPa Trend Height
m
Period
s
Dir
02/01:30pm 21.2 WSW 5 8 1018.0 - 0.0 - - 10 - - - -
02/01:00pm 20.3 W 9 12 1018.5 - 0.0 - - 10 - - - -
02/12:30pm 21.0 WSW 8 11 1018.8 - 0.0 - - 10 - - - -
02/12:00pm 20.8 WSW 7 10 1019.4 - 0.0 - - 10 - - - -
02/11:30am 20.1 SW 9 12 1020.3 - 0.0 - - 10 - - - -
02/11:00am 19.7 SW 9 13 1020.7 - 0.0 - - 10 - - - -
02/10:30am 19.2 WSW 8 11 1021.1 - 0.0 - - 10 - - - -
02/10:00am 17.7 WSW 8 11 1022.0 - 0.0 - - 10 - - - -
02/09:30am 16.1 W 5 7 1022.0 - 0.0 - - 10 - - - -
02/07:30am 10.4 W 5 6 1020.9 - 2.0 - - 10 - - - -
02/07:00am 8.9 W 6 7 1020.8 - 2.0 - - 10 - - - -
02/06:30am 8.5 W 4 5 1020.6 - 2.0 - - 10 - - - -
02/06:00am 8.5 W 6 7 1020.3 - 2.0 - - 10 - - - -
02/05:30am 8.7 WNW 5 6 1020.2 - 2.0 - - 10 - - - -
02/05:00am 8.8 W 6 7 1020.2 - 1.8 - - 10 - - - -
02/04:30am 8.8 W 5 5 1020.0 - 1.8 - - 10 - - - -
02/03:30am 9.2 W 3 5 1020.3 - 1.8 - - 10 - - - -
02/03:00am 9.6 W 5 6 1020.3 - 1.8 - - 10 - - - -
02/02:30am 9.6 W 6 6 1020.3 - 1.8 - - 10 - - - -
02/02:00am 9.8 W 5 6 1020.6 - 1.8 - - 10 - - - -
02/01:41am 9.8 W 3 4 1020.7 - 1.8 - - 10 - - - -
02/01:30am 10.1 W 3 5 1020.8 - 1.8 - - 5 - - - -
02/01:23am 9.9 W 5 6 1020.8 - 1.8 - - 6 - - - -
02/01:00am 10.7 WSW 4 5 1021.1 - 1.8 - - 10 - - - -
02/12:44am 10.7 W 3 5 1021.3 - 1.8 - - 10 - - - -
02/12:30am 10.8 W 5 6 1021.4 - 1.8 - - 5 - - - -
02/12:26am 10.8 WNW 5 6 1021.4 - 1.8 - - 6 - - - -
 
Date/Time
EST
Temp

°C
Wind Pressure Rain
since 9am
mm
Weather Cloud Vis
km
Sea
Height
m
Swell
Dir
 
Speed
knots
Gust
knots
hPa Trend Height
m
Period
s
Dir
01/11:30pm 11.1 W 4 5 1021.6 - 1.8 - - 10 - - - -
01/11:21pm 11.5 W 4 5 1021.7 - 1.8 - - 10 - - - -
01/11:00pm 11.8 W 4 5 1021.9 - 1.8 - - 2 - - - -
01/10:51pm 11.7 W 5 5 1022.0 - 1.6 - - 6 - - - -
01/10:30pm 12.8 SW 2 4 1022.1 - 1.6 - - 10 - - - -
01/10:00pm 13.4 SW 7 9 1022.3 - 1.6 - - 10 - - - -
01/09:30pm 13.6 SW 4 6 1022.3 - 1.6 - - 10 - - - -
01/09:24pm 13.8 SSW 3 5 1022.4 - 1.6 - - 10 - - - -
01/09:00pm 13.9 WSW 3 5 1022.2 - 1.6 - - 9 - - - -
01/08:30pm 13.9 CALM 0 0 1022.1 - 1.6 - - 1 - - - -
01/08:19pm 13.8 SW 2 4 1022.1 - 1.6 - - 4 - - - -
01/08:00pm 13.8 W 5 6 1021.9 - 1.6 - - 10 - - - -
01/07:30pm 14.3 W 4 5 1021.5 - 1.6 - - 10 - - - -
01/07:26pm 14.3 W 4 5 1021.5 - 1.6 - - 10 - - - -
01/07:00pm 14.4 WNW 4 5 1021.2 - 1.6 - - 4 - - - -
01/06:58pm 14.6 WNW 4 5 1021.2 - 1.6 - - 5 - - - -
01/06:30pm 14.6 WNW 4 6 1021.2 - 1.6 - - 10 - - - -
01/06:00pm 15.3 ENE 1 6 1021.0 - 1.6 - - 10 - - - -
01/05:30pm 16.5 CALM 0 0 1020.8 - 1.6 - - 10 - - - -
01/05:00pm 18.0 CALM 0 0 1020.7 - 1.6 - - 10 - - - -
01/04:30pm 20.1 E 3 4 1020.6 - 1.6 - - 10 - - - -
01/04:00pm 20.6 E 4 5 1020.5 - 1.6 - - 10 - - - -
01/03:30pm 20.5 ESE 6 7 1020.5 - 1.6 - Partly cloudy 10 - - - -
01/03:00pm 21.1 ESE 7 10 1020.6 - 1.6 - Partly cloudy 10 - - - -
01/02:30pm 20.5 ESE 8 10 1020.7 - 1.6 - Partly cloudy 10 - - - -
01/02:00pm 19.7 ESE 6 7 1021.0 - 1.6 - Partly cloudy 10 - - - -
01/01:38pm 18.8 E 5 6 1021.1 - 1.6 - Partly cloudy 10 - - - -
01/01:30pm 19.0 E 4 5 1021.2 - 1.6 - Partly cloudy 10 - - - -
01/01:21pm 19.2 SE 7 11 1021.3 - 1.4 - Partly cloudy 6 - - - -
01/01:00pm 21.8 ESE 8 11 1021.1 - 0.0 - Partly cloudy 10 - - - -
01/12:30pm 20.7 E 7 9 1021.5 - 0.0 - - 10 - - - -
01/12:00pm 21.4 E 7 9 1022.2 - 0.0 - - 10 - - - -
01/11:30am 21.4 ESE 6 7 1022.7 - 0.0 - Partly cloudy 10 - - - -
01/11:00am 20.8 E 6 8 1023.2 - 0.0 - Partly cloudy 10 - - - -
01/10:30am 21.6 SW 3 6 1023.7 - 0.0 - Partly cloudy 10 - - - -
01/10:00am 20.3 S 4 7 1023.9 - 0.0 - Partly cloudy 10 - - - -
01/09:30am 19.2 SSW 5 7 1024.0 - 0.0 - Cloudy 10 - - - -
01/09:00am 17.9 SW 4 6 1024.0 - 0.0 - Mostly cloudy 10 - - - -
01/08:30am 16.3 WSW 4 5 1024.1 - 0.0 - Cloudy 10 - - - -
01/08:00am 15.3 W 3 4 1024.0 - 0.0 - Partly cloudy 10 - - - -
01/07:30am 13.6 W 4 5 1023.7 - 0.0 - - 10 - - - -
01/07:00am 12.3 W 2 3 1023.3 - 0.0 - - 10 - - - -
01/06:30am 12.3 W 3 4 1023.3 - 0.0 - - 10 - - - -
01/06:00am 12.5 W 4 4 1023.0 - 0.0 - - 10 - - - -
01/05:30am 12.6 WNW 5 6 1022.9 - 0.0 - - 10 - - - -
01/05:00am 12.8 CALM 0 0 1022.9 - 0.0 - - 10 - - - -
01/04:30am 13.0 WNW 3 4 1022.8 - 0.0 - - 10 - - - -
01/04:00am 12.9 W 4 4 1022.7 - 0.0 - - 10 - - - -
01/03:30am 13.3 W 3 4 1022.8 - 0.0 - - 10 - - - -
01/03:00am 13.5 WSW 4 5 1022.9 - 0.0 - - 10 - - - -
01/02:30am 13.9 W 4 5 1023.2 - 0.0 - - 10 - - - -
01/02:00am 14.0 WSW 3 5 1023.4 - 0.0 - - 10 - - - -
01/01:30am 14.3 WSW 4 6 1023.6 - 0.0 - - 10 - - - -
01/01:00am 14.0 WSW 4 5 1024.0 - 0.0 - - 10 - - - -
01/12:30am 14.0 W 4 5 1024.3 - 0.0 - - 10 - - - -
01/12:00am 13.9 W 5 5 1024.5 - 0.0 - - 10 - - - -
 
Date/Time
EST
Temp

°C
Wind Pressure Rain
since 9am
mm
Weather Cloud Vis
km
Sea
Height
m
Swell
Dir
 
Speed
knots
Gust
knots
hPa Trend Height
m
Period
s
Dir
30/11:30pm 14.0 W 4 5 1024.6 - 0.0 - - 10 - - - -
30/11:00pm 14.6 CALM 0 0 1024.9 - 0.0 - - 10 - - - -
30/10:30pm 14.8 WSW 2 5 1025.0 - 0.0 - - 10 - - - -
30/10:00pm 15.3 WSW 5 7 1025.2 - 0.0 - - 10 - - - -
30/09:30pm 15.4 SW 5 6 1025.2 - 0.0 - - 10 - - - -
30/09:00pm 15.3 SW 5 6 1025.2 - 0.0 - - 10 - - - -
30/08:30pm 15.5 WSW 4 6 1024.9 - 0.0 - - 10 - - - -
30/08:00pm 15.5 SW 4 5 1024.8 - 0.0 - - 10 - - - -
30/07:30pm 15.8 SW 4 6 1024.6 - 0.0 - - 10 - - - -
30/07:00pm 16.1 SSW 3 4 1024.3 - 0.0 - - 10 - - - -
30/06:30pm 16.9 S 2 3 1024.1 - 0.0 - - 10 - - - -
30/06:00pm 17.6 S 4 6 1023.9 - 0.0 - - 10 - - - -
30/05:30pm 18.1 S 5 6 1023.8 - 0.0 - - 10 - - - -
30/05:00pm 18.5 SSE 5 6 1023.9 - 0.0 - - 10 - - - -
30/04:30pm 19.3 SE 7 8 1023.8 - 0.0 - - 10 - - - -
30/04:00pm 20.2 SE 8 9 1023.8 - 0.0 - - 10 - - - -
30/03:30pm 20.7 SE 8 10 1023.8 - 0.0 - - 10 - - - -
30/03:00pm 21.2 SE 9 11 1023.7 - 0.0 - - 10 - - - -
30/02:30pm 21.5 SE 9 11 1023.7 - 0.0 - - 10 - - - -
30/02:00pm 21.9 SE 8 11 1023.8 - 0.0 - - 10 - - - -
30/01:30pm 21.9 SE 9 11 1024.1 - 0.0 - - 10 - - - -
30/01:00pm 22.2 SSE 7 9 1024.3 - 0.0 - - 10 - - - -
30/12:30pm 22.4 SE 7 9 1025.0 - 0.0 - - 10 - - - -
30/12:00pm 21.9 SE 8 11 1025.6 - 0.0 - - 10 - - - -
30/11:30am 21.6 SE 7 11 1026.0 - 0.0 - - 10 - - - -
30/11:00am 21.6 SSE 7 11 1026.1 - 0.0 - - 10 - - - -
30/10:30am 20.7 S 10 12 1026.5 - 0.0 - - 10 - - - -
30/10:00am 20.2 SSW 10 13 1027.1 - 0.0 - - 10 - - - -
30/09:30am 19.3 S 11 14 1027.1 - 0.0 - - 10 - - - -
30/09:00am 18.2 S 12 16 1027.1 - 14.4 - - 10 - - - -
30/08:30am 17.8 SSW 9 15 1027.3 - 14.4 - - 10 - - - -
30/08:00am 16.2 SW 7 9 1027.1 - 14.4 - - 10 - - - -
30/07:30am 15.1 SW 6 8 1026.7 - 14.4 - - 10 - - - -
30/07:00am 14.4 SSW 6 8 1026.5 - 14.4 - - 10 - - - -
30/06:30am 14.0 S 6 8 1026.1 - 14.4 - - 10 - - - -
30/06:00am 14.0 SW 5 7 1026.4 - 14.4 - - 10 - - - -
30/05:30am 14.7 SSW 8 10 1026.4 - 14.4 - - 10 - - - -
30/05:00am 13.9 SSW 5 7 1026.3 - 14.4 - - 10 - - - -
30/04:30am 14.2 SW 5 6 1026.5 - 14.4 - Partly cloudy 10 - - - -
30/04:00am 14.4 SW 6 7 1026.8 - 14.4 - - 10 - - - -
30/03:30am 14.6 WSW 4 5 1026.8 - 14.4 - Partly cloudy 10 - - - -
30/03:00am 15.4 SW 6 8 1026.8 - 14.2 - Cloudy 10 - - - -
30/02:30am 15.5 SSW 8 11 1027.0 - 14.2 - Cloudy 10 - - - -
30/02:00am 15.5 SSW 7 11 1027.0 - 14.2 - Partly cloudy 10 - - - -
30/01:30am 15.5 SSW 7 10 1027.1 - 14.2 - Partly cloudy 10 - - - -
30/01:00am 15.6 SSW 7 13 1027.3 - 14.2 - Partly cloudy 10 - - - -
30/12:30am 15.9 SW 10 13 1027.4 - 14.2 - Partly cloudy 10 - - - -
30/12:02am 16.0 SSW 9 13 1027.5 - 12.2 - Partly cloudy 6 - - - -
30/12:00am 16.0 SSW 9 12 1027.5 - 11.8 - Cloudy 9 - - - -
 
Date/Time
EST
Temp

°C
Wind Pressure Rain
since 9am
mm
Weather Cloud Vis
km
Sea
Height
m
Swell
Dir
 
Speed
knots
Gust
knots
hPa Trend Height
m
Period
s
Dir
29/11:30pm 16.0 SW 5 8 1027.5 - 11.0 - Partly cloudy 10 - - - -
29/11:00pm 16.0 SW 8 11 1027.7 - 10.8 - Partly cloudy 8 - - - -
29/10:30pm 16.0 SSW 8 10 1028.2 - 10.6 - Partly cloudy 10 - - - -
29/10:19pm 16.0 SW 8 11 1028.3 - 10.6 - Partly cloudy 6 - - - -
29/10:00pm 16.1 SW 5 7 1028.4 - 9.8 - Partly cloudy 10 - - - -
29/09:52pm 16.1 SW 6 8 1028.4 - 9.8 - Partly cloudy 10 - - - -
29/09:33pm 16.1 SW 5 8 1028.5 - 9.4 - Partly cloudy 6 - - - -
29/09:30pm 16.1 WSW 5 8 1028.5 - 8.4 - Partly cloudy 10 - - - -
29/09:27pm 16.1 WSW 5 7 1028.5 - 8.4 - Partly cloudy 10 - - - -
29/09:09pm 16.1 W 5 6 1028.6 - 8.2 - Partly cloudy 6 - - - -
29/09:00pm 16.2 W 5 5 1028.6 - 7.6 - Cloudy 10 - - - -
29/08:30pm 16.2 WNW 4 6 1028.3 - 7.4 - Partly cloudy 10 - - - -
29/08:00pm 16.4 SW 7 9 1028.2 - 7.2 - Partly cloudy 10 - - - -
29/07:56pm 16.5 SW 7 9 1028.2 - 7.2 - Partly cloudy 10 - - - -
29/07:30pm 16.6 SE 8 13 1028.3 - 7.2 - Partly cloudy 10 - - - -
29/07:28pm 16.6 SSE 7 13 1028.4 - 7.2 - Partly cloudy 10 - - - -
29/07:14pm 16.4 S 5 9 1028.4 - 7.0 - Partly cloudy 3 - - - -
29/07:00pm 16.4 SSW 9 12 1028.0 - 3.8 - Cloudy 6 - - - -
29/06:54pm 16.5 SSW 8 12 1027.8 - 3.6 - Partly cloudy 6 - - - -
29/06:30pm 16.6 SW 7 9 1027.6 - 2.8 - Partly cloudy 8 - - - -
29/06:06pm 16.6 SSW 9 13 1027.2 - 2.2 - Partly cloudy 10 - - - -
29/06:00pm 16.7 SSW 8 12 1027.1 - 2.2 - Cloudy 10 - - - -
29/05:46pm 16.7 S 8 13 1027.1 - 1.6 - Partly cloudy 6 - - - -
29/05:30pm 16.8 SSW 9 12 1026.8 - 0.4 - Partly cloudy 10 - - - -
29/05:00pm 16.8 SSW 9 11 1026.6 - 0.4 - Partly cloudy 10 - - - -
29/04:30pm 17.0 SSW 9 13 1026.6 - 0.4 - Partly cloudy 10 - - - -
29/04:00pm 17.0 S 8 10 1026.7 - 0.4 - Partly cloudy 10 - - - -
29/03:34pm 16.9 SSE 11 15 1027.0 - 0.4 - Partly cloudy 10 - - - -
29/03:30pm 17.1 SSE 12 15 1027.1 - 0.4 - Partly cloudy 9 - - - -
29/03:21pm 17.4 SSE 12 17 1027.2 - 0.2 - Partly cloudy 6 - - - -
29/03:20pm 17.4 SSE 12 17 1027.3 - 0.2 - Partly cloudy 7 - - - -
29/03:01pm 18.3 S 13 17 1027.3 - 0.0 - Partly cloudy 10 - - - -
29/03:00pm 18.3 S 13 17 1027.3 - 0.0 - Cloudy 10 - - - -
29/02:30pm 19.5 S 13 18 1027.4 - 0.0 - Partly cloudy 10 - - - -
29/02:00pm 18.6 S 11 13 1027.7 - 0.0 - Partly cloudy 10 - - - -

Other Formats:

Comma delimited format used in spreadsheet applications
http://www.bom.gov.au/fwo/IDQ60701/IDQ60701.94569.axf

JavaScript Object Notation format (JSON) in row-major order
http://www.bom.gov.au/fwo/IDQ60701/IDQ60701.94569.json